sensor_id;sensor_type;location;lat;lon;timestamp;P1;durP1;ratioP1;P2;durP2;ratioP2
41059;SDS011;26811;53.160;8.202;2023-12-04T00:00:10;53.00;;;20.30;;
41059;SDS011;26811;53.160;8.202;2023-12-04T00:05:11;49.80;;;20.13;;
41059;SDS011;26811;53.160;8.202;2023-12-04T00:10:12;50.10;;;20.33;;
41059;SDS011;26811;53.160;8.202;2023-12-04T00:15:12;51.55;;;21.48;;
41059;SDS011;26811;53.160;8.202;2023-12-04T00:20:13;51.42;;;19.88;;
41059;SDS011;26811;53.160;8.202;2023-12-04T00:25:13;45.33;;;18.80;;
41059;SDS011;26811;53.160;8.202;2023-12-04T00:30:14;48.83;;;20.67;;
41059;SDS011;26811;53.160;8.202;2023-12-04T00:35:15;51.25;;;20.60;;
41059;SDS011;26811;53.160;8.202;2023-12-04T00:40:18;54.03;;;21.23;;
41059;SDS011;26811;53.160;8.202;2023-12-04T00:45:19;44.08;;;19.17;;
41059;SDS011;26811;53.160;8.202;2023-12-04T00:50:19;56.15;;;21.85;;
41059;SDS011;26811;53.160;8.202;2023-12-04T00:55:20;55.00;;;22.05;;
41059;SDS011;26811;53.160;8.202;2023-12-04T01:00:20;49.95;;;20.15;;
41059;SDS011;26811;53.160;8.202;2023-12-04T01:05:21;54.92;;;21.65;;
41059;SDS011;26811;53.160;8.202;2023-12-04T01:10:21;56.33;;;20.13;;
41059;SDS011;26811;53.160;8.202;2023-12-04T01:15:22;55.72;;;22.33;;
41059;SDS011;26811;53.160;8.202;2023-12-04T01:20:23;52.70;;;19.70;;
41059;SDS011;26811;53.160;8.202;2023-12-04T01:25:24;60.10;;;22.63;;
41059;SDS011;26811;53.160;8.202;2023-12-04T01:30:24;57.05;;;21.80;;
41059;SDS011;26811;53.160;8.202;2023-12-04T01:35:25;54.75;;;22.08;;
41059;SDS011;26811;53.160;8.202;2023-12-04T01:40:28;57.97;;;22.05;;
41059;SDS011;26811;53.160;8.202;2023-12-04T01:45:29;59.38;;;22.15;;
41059;SDS011;26811;53.160;8.202;2023-12-04T01:50:30;53.90;;;21.77;;
41059;SDS011;26811;53.160;8.202;2023-12-04T01:55:30;58.47;;;22.25;;
41059;SDS011;26811;53.160;8.202;2023-12-04T02:00:32;60.42;;;22.15;;
41059;SDS011;26811;53.160;8.202;2023-12-04T02:05:36;49.17;;;20.10;;
41059;SDS011;26811;53.160;8.202;2023-12-04T02:10:37;56.38;;;21.00;;
41059;SDS011;26811;53.160;8.202;2023-12-04T02:15:38;56.97;;;21.05;;
41059;SDS011;26811;53.160;8.202;2023-12-04T02:20:39;63.30;;;22.42;;
41059;SDS011;26811;53.160;8.202;2023-12-04T02:25:40;56.63;;;21.73;;
41059;SDS011;26811;53.160;8.202;2023-12-04T02:30:41;57.45;;;21.60;;
41059;SDS011;26811;53.160;8.202;2023-12-04T02:35:43;60.08;;;22.27;;
41059;SDS011;26811;53.160;8.202;2023-12-04T02:40:55;53.83;;;21.33;;
41059;SDS011;26811;53.160;8.202;2023-12-04T02:45:55;57.13;;;21.42;;
41059;SDS011;26811;53.160;8.202;2023-12-04T02:50:56;57.03;;;21.25;;
41059;SDS011;26811;53.160;8.202;2023-12-04T02:55:56;55.25;;;21.42;;
41059;SDS011;26811;53.160;8.202;2023-12-04T03:00:57;50.70;;;19.45;;
41059;SDS011;26811;53.160;8.202;2023-12-04T03:05:57;56.13;;;21.63;;
41059;SDS011;26811;53.160;8.202;2023-12-04T03:10:58;53.53;;;20.17;;
41059;SDS011;26811;53.160;8.202;2023-12-04T03:15:58;56.00;;;20.92;;
41059;SDS011;26811;53.160;8.202;2023-12-04T03:20:59;61.50;;;22.42;;
41059;SDS011;26811;53.160;8.202;2023-12-04T03:26:03;56.35;;;21.30;;
41059;SDS011;26811;53.160;8.202;2023-12-04T03:31:04;59.58;;;20.67;;
41059;SDS011;26811;53.160;8.202;2023-12-04T03:36:05;57.88;;;20.67;;
41059;SDS011;26811;53.160;8.202;2023-12-04T03:41:13;60.20;;;21.77;;
41059;SDS011;26811;53.160;8.202;2023-12-04T03:46:15;59.47;;;20.23;;
41059;SDS011;26811;53.160;8.202;2023-12-04T03:51:16;55.28;;;19.80;;
41059;SDS011;26811;53.160;8.202;2023-12-04T03:56:16;55.17;;;21.13;;
41059;SDS011;26811;53.160;8.202;2023-12-04T04:01:17;56.75;;;21.33;;
41059;SDS011;26811;53.160;8.202;2023-12-04T04:06:17;57.00;;;21.38;;
41059;SDS011;26811;53.160;8.202;2023-12-04T04:11:18;56.35;;;20.83;;
41059;SDS011;26811;53.160;8.202;2023-12-04T04:16:19;54.15;;;20.85;;
41059;SDS011;26811;53.160;8.202;2023-12-04T04:21:19;62.00;;;21.05;;
41059;SDS011;26811;53.160;8.202;2023-12-04T04:26:23;55.35;;;20.92;;
41059;SDS011;26811;53.160;8.202;2023-12-04T04:31:23;58.83;;;21.73;;
41059;SDS011;26811;53.160;8.202;2023-12-04T04:36:34;53.75;;;20.23;;
41059;SDS011;26811;53.160;8.202;2023-12-04T04:41:35;61.70;;;21.58;;
41059;SDS011;26811;53.160;8.202;2023-12-04T04:46:36;51.75;;;20.98;;
41059;SDS011;26811;53.160;8.202;2023-12-04T04:51:36;55.35;;;21.92;;
41059;SDS011;26811;53.160;8.202;2023-12-04T04:56:37;58.42;;;22.02;;
41059;SDS011;26811;53.160;8.202;2023-12-04T05:01:37;60.15;;;22.38;;
41059;SDS011;26811;53.160;8.202;2023-12-04T05:06:38;52.90;;;20.23;;
41059;SDS011;26811;53.160;8.202;2023-12-04T05:11:38;58.45;;;20.08;;
41059;SDS011;26811;53.160;8.202;2023-12-04T05:16:39;56.13;;;21.35;;
41059;SDS011;26811;53.160;8.202;2023-12-04T05:21:39;55.88;;;21.33;;
41059;SDS011;26811;53.160;8.202;2023-12-04T05:26:40;61.13;;;22.13;;
41059;SDS011;26811;53.160;8.202;2023-12-04T05:31:41;55.95;;;21.13;;
41059;SDS011;26811;53.160;8.202;2023-12-04T05:36:41;58.50;;;21.65;;
41059;SDS011;26811;53.160;8.202;2023-12-04T05:41:42;61.72;;;23.42;;
41059;SDS011;26811;53.160;8.202;2023-12-04T05:46:42;58.33;;;21.90;;
41059;SDS011;26811;53.160;8.202;2023-12-04T05:51:43;53.38;;;20.67;;
41059;SDS011;26811;53.160;8.202;2023-12-04T05:56:43;52.80;;;20.08;;
41059;SDS011;26811;53.160;8.202;2023-12-04T06:01:44;63.88;;;22.73;;
41059;SDS011;26811;53.160;8.202;2023-12-04T06:06:44;50.88;;;21.55;;
41059;SDS011;26811;53.160;8.202;2023-12-04T06:11:45;53.05;;;20.58;;
41059;SDS011;26811;53.160;8.202;2023-12-04T06:16:45;61.28;;;22.23;;
41059;SDS011;26811;53.160;8.202;2023-12-04T06:21:46;50.60;;;21.48;;
41059;SDS011;26811;53.160;8.202;2023-12-04T06:26:48;57.00;;;20.75;;
41059;SDS011;26811;53.160;8.202;2023-12-04T06:31:59;57.20;;;20.60;;
41059;SDS011;26811;53.160;8.202;2023-12-04T06:37:01;59.08;;;22.17;;
41059;SDS011;26811;53.160;8.202;2023-12-04T06:42:02;54.15;;;21.40;;
41059;SDS011;26811;53.160;8.202;2023-12-04T06:47:04;48.25;;;20.33;;
41059;SDS011;26811;53.160;8.202;2023-12-04T06:52:07;53.00;;;19.95;;
41059;SDS011;26811;53.160;8.202;2023-12-04T06:57:08;62.13;;;22.25;;
41059;SDS011;26811;53.160;8.202;2023-12-04T07:02:08;53.67;;;20.30;;
41059;SDS011;26811;53.160;8.202;2023-12-04T07:07:09;53.63;;;21.23;;
41059;SDS011;26811;53.160;8.202;2023-12-04T07:12:09;55.42;;;21.20;;
41059;SDS011;26811;53.160;8.202;2023-12-04T07:17:10;57.05;;;22.27;;
41059;SDS011;26811;53.160;8.202;2023-12-04T07:22:11;50.20;;;20.08;;
41059;SDS011;26811;53.160;8.202;2023-12-04T07:27:12;51.58;;;20.77;;
41059;SDS011;26811;53.160;8.202;2023-12-04T07:32:12;53.50;;;21.45;;
41059;SDS011;26811;53.160;8.202;2023-12-04T07:37:13;56.03;;;21.20;;
41059;SDS011;26811;53.160;8.202;2023-12-04T07:42:13;44.65;;;19.02;;
41059;SDS011;26811;53.160;8.202;2023-12-04T07:47:14;47.78;;;19.63;;
41059;SDS011;26811;53.160;8.202;2023-12-04T07:52:15;47.30;;;19.25;;
41059;SDS011;26811;53.160;8.202;2023-12-04T07:57:16;45.67;;;19.55;;
41059;SDS011;26811;53.160;8.202;2023-12-04T08:02:16;46.58;;;18.63;;
41059;SDS011;26811;53.160;8.202;2023-12-04T08:07:17;39.03;;;17.08;;
41059;SDS011;26811;53.160;8.202;2023-12-04T08:12:17;39.28;;;17.23;;
41059;SDS011;26811;53.160;8.202;2023-12-04T08:17:18;44.08;;;17.98;;
41059;SDS011;26811;53.160;8.202;2023-12-04T08:22:24;40.35;;;17.58;;
41059;SDS011;26811;53.160;8.202;2023-12-04T08:27:48;40.50;;;17.38;;
41059;SDS011;26811;53.160;8.202;2023-12-04T08:32:49;41.85;;;17.73;;
41059;SDS011;26811;53.160;8.202;2023-12-04T08:37:50;42.65;;;17.45;;
41059;SDS011;26811;53.160;8.202;2023-12-04T08:42:51;41.40;;;16.90;;
41059;SDS011;26811;53.160;8.202;2023-12-04T08:47:54;36.15;;;15.98;;
41059;SDS011;26811;53.160;8.202;2023-12-04T08:52:54;39.35;;;17.27;;
41059;SDS011;26811;53.160;8.202;2023-12-04T08:57:55;47.95;;;16.20;;
41059;SDS011;26811;53.160;8.202;2023-12-04T09:02:55;30.80;;;15.30;;
41059;SDS011;26811;53.160;8.202;2023-12-04T09:07:56;35.95;;;15.75;;
41059;SDS011;26811;53.160;8.202;2023-12-04T09:12:56;35.42;;;16.70;;
41059;SDS011;26811;53.160;8.202;2023-12-04T09:17:57;33.78;;;14.60;;
41059;SDS011;26811;53.160;8.202;2023-12-04T09:22:57;34.05;;;15.32;;
41059;SDS011;26811;53.160;8.202;2023-12-04T09:27:58;33.70;;;15.85;;
41059;SDS011;26811;53.160;8.202;2023-12-04T09:32:58;33.58;;;14.98;;
41059;SDS011;26811;53.160;8.202;2023-12-04T09:37:59;34.50;;;14.93;;
41059;SDS011;26811;53.160;8.202;2023-12-04T09:42:59;34.95;;;15.05;;
41059;SDS011;26811;53.160;8.202;2023-12-04T09:48:00;36.40;;;15.40;;
41059;SDS011;26811;53.160;8.202;2023-12-04T09:53:01;37.80;;;16.90;;
41059;SDS011;26811;53.160;8.202;2023-12-04T09:58:03;35.58;;;16.15;;
41059;SDS011;26811;53.160;8.202;2023-12-04T10:03:05;35.70;;;15.33;;
41059;SDS011;26811;53.160;8.202;2023-12-04T10:08:06;34.90;;;14.75;;
41059;SDS011;26811;53.160;8.202;2023-12-04T10:13:08;39.30;;;15.55;;
41059;SDS011;26811;53.160;8.202;2023-12-04T10:18:11;34.80;;;14.75;;
41059;SDS011;26811;53.160;8.202;2023-12-04T10:23:38;31.77;;;14.82;;
41059;SDS011;26811;53.160;8.202;2023-12-04T10:28:40;38.67;;;14.65;;
41059;SDS011;26811;53.160;8.202;2023-12-04T10:34:01;34.13;;;14.35;;
41059;SDS011;26811;53.160;8.202;2023-12-04T10:39:04;33.22;;;15.45;;
41059;SDS011;26811;53.160;8.202;2023-12-04T10:44:04;32.90;;;15.27;;
41059;SDS011;26811;53.160;8.202;2023-12-04T10:49:06;31.23;;;14.10;;
41059;SDS011;26811;53.160;8.202;2023-12-04T10:54:09;28.17;;;13.73;;
41059;SDS011;26811;53.160;8.202;2023-12-04T10:59:13;31.67;;;14.70;;
41059;SDS011;26811;53.160;8.202;2023-12-04T11:04:18;31.38;;;14.05;;
41059;SDS011;26811;53.160;8.202;2023-12-04T11:09:21;34.83;;;15.43;;
41059;SDS011;26811;53.160;8.202;2023-12-04T11:14:27;32.55;;;14.95;;
41059;SDS011;26811;53.160;8.202;2023-12-04T11:19:55;33.80;;;14.30;;
41059;SDS011;26811;53.160;8.202;2023-12-04T11:25:13;33.78;;;14.43;;
41059;SDS011;26811;53.160;8.202;2023-12-04T11:30:14;33.65;;;16.13;;
41059;SDS011;26811;53.160;8.202;2023-12-04T11:35:16;27.67;;;13.85;;
41059;SDS011;26811;53.160;8.202;2023-12-04T11:40:17;28.10;;;13.68;;
41059;SDS011;26811;53.160;8.202;2023-12-04T11:45:19;30.58;;;14.35;;
41059;SDS011;26811;53.160;8.202;2023-12-04T11:50:21;28.45;;;14.02;;
41059;SDS011;26811;53.160;8.202;2023-12-04T11:55:25;28.38;;;13.50;;
41059;SDS011;26811;53.160;8.202;2023-12-04T12:00:26;29.08;;;14.43;;
41059;SDS011;26811;53.160;8.202;2023-12-04T12:05:27;24.98;;;13.00;;
41059;SDS011;26811;53.160;8.202;2023-12-04T12:10:28;29.90;;;13.35;;
41059;SDS011;26811;53.160;8.202;2023-12-04T12:15:29;30.27;;;13.73;;
41059;SDS011;26811;53.160;8.202;2023-12-04T12:20:30;29.15;;;13.82;;
41059;SDS011;26811;53.160;8.202;2023-12-04T12:25:31;27.05;;;13.38;;
41059;SDS011;26811;53.160;8.202;2023-12-04T12:30:32;27.48;;;14.43;;
41059;SDS011;26811;53.160;8.202;2023-12-04T12:35:32;27.02;;;14.00;;
41059;SDS011;26811;53.160;8.202;2023-12-04T12:40:33;27.63;;;12.75;;
41059;SDS011;26811;53.160;8.202;2023-12-04T12:45:41;29.25;;;14.35;;
41059;SDS011;26811;53.160;8.202;2023-12-04T12:50:43;29.52;;;13.20;;
41059;SDS011;26811;53.160;8.202;2023-12-04T12:55:44;28.85;;;13.57;;
41059;SDS011;26811;53.160;8.202;2023-12-04T13:00:45;27.52;;;13.20;;
41059;SDS011;26811;53.160;8.202;2023-12-04T13:05:47;29.35;;;14.52;;
41059;SDS011;26811;53.160;8.202;2023-12-04T13:10:47;25.05;;;12.93;;
41059;SDS011;26811;53.160;8.202;2023-12-04T13:15:48;30.17;;;13.82;;
41059;SDS011;26811;53.160;8.202;2023-12-04T13:20:49;28.17;;;13.32;;
41059;SDS011;26811;53.160;8.202;2023-12-04T13:25:49;24.50;;;12.80;;
41059;SDS011;26811;53.160;8.202;2023-12-04T13:30:50;23.25;;;12.68;;
41059;SDS011;26811;53.160;8.202;2023-12-04T13:35:51;28.48;;;13.55;;
41059;SDS011;26811;53.160;8.202;2023-12-04T13:40:51;27.63;;;13.15;;
41059;SDS011;26811;53.160;8.202;2023-12-04T13:46:08;26.27;;;13.00;;
41059;SDS011;26811;53.160;8.202;2023-12-04T13:51:10;28.25;;;14.13;;
41059;SDS011;26811;53.160;8.202;2023-12-04T13:56:11;24.98;;;13.07;;
41059;SDS011;26811;53.160;8.202;2023-12-04T14:01:28;27.02;;;12.35;;
41059;SDS011;26811;53.160;8.202;2023-12-04T14:06:29;24.42;;;13.10;;
41059;SDS011;26811;53.160;8.202;2023-12-04T14:11:30;27.00;;;13.50;;
41059;SDS011;26811;53.160;8.202;2023-12-04T14:16:30;28.83;;;14.35;;
41059;SDS011;26811;53.160;8.202;2023-12-04T14:21:31;30.20;;;13.60;;
41059;SDS011;26811;53.160;8.202;2023-12-04T14:26:31;30.00;;;13.73;;
41059;SDS011;26811;53.160;8.202;2023-12-04T14:31:32;29.70;;;13.95;;
41059;SDS011;26811;53.160;8.202;2023-12-04T14:36:33;27.50;;;13.75;;
41059;SDS011;26811;53.160;8.202;2023-12-04T14:41:33;28.13;;;13.70;;
41059;SDS011;26811;53.160;8.202;2023-12-04T14:46:34;28.17;;;13.52;;
41059;SDS011;26811;53.160;8.202;2023-12-04T14:51:34;28.27;;;14.73;;
41059;SDS011;26811;53.160;8.202;2023-12-04T14:56:35;23.70;;;12.88;;
41059;SDS011;26811;53.160;8.202;2023-12-04T15:01:35;28.42;;;13.88;;
41059;SDS011;26811;53.160;8.202;2023-12-04T15:06:39;27.35;;;13.75;;
41059;SDS011;26811;53.160;8.202;2023-12-04T15:11:58;28.77;;;14.07;;
41059;SDS011;26811;53.160;8.202;2023-12-04T15:17:17;29.35;;;14.20;;
41059;SDS011;26811;53.160;8.202;2023-12-04T15:22:29;34.22;;;15.45;;
41059;SDS011;26811;53.160;8.202;2023-12-04T15:27:33;30.07;;;14.37;;
41059;SDS011;26811;53.160;8.202;2023-12-04T15:32:33;31.80;;;14.80;;
41059;SDS011;26811;53.160;8.202;2023-12-04T15:37:34;27.58;;;13.85;;
41059;SDS011;26811;53.160;8.202;2023-12-04T15:42:34;27.55;;;13.00;;
41059;SDS011;26811;53.160;8.202;2023-12-04T15:47:35;26.85;;;13.85;;
41059;SDS011;26811;53.160;8.202;2023-12-04T15:52:36;27.40;;;13.13;;
41059;SDS011;26811;53.160;8.202;2023-12-04T15:57:41;25.77;;;12.95;;
41059;SDS011;26811;53.160;8.202;2023-12-04T16:02:42;25.42;;;13.02;;
41059;SDS011;26811;53.160;8.202;2023-12-04T16:07:43;28.73;;;13.40;;
41059;SDS011;26811;53.160;8.202;2023-12-04T16:12:44;27.77;;;13.50;;
41059;SDS011;26811;53.160;8.202;2023-12-04T16:17:45;28.00;;;14.32;;
41059;SDS011;26811;53.160;8.202;2023-12-04T16:22:46;26.08;;;13.15;;
41059;SDS011;26811;53.160;8.202;2023-12-04T16:27:46;26.15;;;13.40;;
41059;SDS011;26811;53.160;8.202;2023-12-04T16:32:47;31.50;;;14.60;;
41059;SDS011;26811;53.160;8.202;2023-12-04T16:37:49;26.92;;;13.02;;
41059;SDS011;26811;53.160;8.202;2023-12-04T16:42:49;27.10;;;13.35;;
41059;SDS011;26811;53.160;8.202;2023-12-04T16:47:50;24.65;;;12.43;;
41059;SDS011;26811;53.160;8.202;2023-12-04T16:52:51;28.10;;;13.50;;
41059;SDS011;26811;53.160;8.202;2023-12-04T16:57:52;26.55;;;13.23;;
41059;SDS011;26811;53.160;8.202;2023-12-04T17:02:54;27.00;;;13.13;;
41059;SDS011;26811;53.160;8.202;2023-12-04T17:07:55;27.20;;;14.07;;
41059;SDS011;26811;53.160;8.202;2023-12-04T17:12:57;30.10;;;14.02;;
41059;SDS011;26811;53.160;8.202;2023-12-04T17:17:57;26.08;;;13.23;;
41059;SDS011;26811;53.160;8.202;2023-12-04T17:22:58;25.83;;;13.27;;
41059;SDS011;26811;53.160;8.202;2023-12-04T17:27:58;30.52;;;12.95;;
41059;SDS011;26811;53.160;8.202;2023-12-04T17:32:59;28.85;;;14.38;;
41059;SDS011;26811;53.160;8.202;2023-12-04T17:37:59;24.52;;;12.98;;
41059;SDS011;26811;53.160;8.202;2023-12-04T17:43:01;26.83;;;13.63;;
41059;SDS011;26811;53.160;8.202;2023-12-04T17:48:01;23.65;;;12.98;;
41059;SDS011;26811;53.160;8.202;2023-12-04T17:53:03;27.77;;;13.57;;
41059;SDS011;26811;53.160;8.202;2023-12-04T17:58:07;26.90;;;13.20;;
41059;SDS011;26811;53.160;8.202;2023-12-04T18:03:08;24.80;;;12.80;;
41059;SDS011;26811;53.160;8.202;2023-12-04T18:08:11;25.55;;;12.45;;
41059;SDS011;26811;53.160;8.202;2023-12-04T18:13:15;27.95;;;13.82;;
41059;SDS011;26811;53.160;8.202;2023-12-04T18:18:23;27.38;;;12.95;;
41059;SDS011;26811;53.160;8.202;2023-12-04T18:23:24;27.73;;;12.80;;
41059;SDS011;26811;53.160;8.202;2023-12-04T18:28:25;26.48;;;13.38;;
41059;SDS011;26811;53.160;8.202;2023-12-04T18:33:25;38.30;;;17.55;;
41059;SDS011;26811;53.160;8.202;2023-12-04T18:38:36;29.75;;;13.43;;
41059;SDS011;26811;53.160;8.202;2023-12-04T18:43:42;31.17;;;15.73;;
41059;SDS011;26811;53.160;8.202;2023-12-04T18:48:44;26.17;;;11.57;;
41059;SDS011;26811;53.160;8.202;2023-12-04T18:53:45;26.05;;;14.07;;
41059;SDS011;26811;53.160;8.202;2023-12-04T18:58:46;26.08;;;13.20;;
41059;SDS011;26811;53.160;8.202;2023-12-04T19:03:46;25.20;;;12.63;;
41059;SDS011;26811;53.160;8.202;2023-12-04T19:08:47;24.60;;;12.70;;
41059;SDS011;26811;53.160;8.202;2023-12-04T19:13:53;24.98;;;13.63;;
41059;SDS011;26811;53.160;8.202;2023-12-04T19:18:54;24.05;;;12.70;;
41059;SDS011;26811;53.160;8.202;2023-12-04T19:23:55;26.42;;;13.40;;
41059;SDS011;26811;53.160;8.202;2023-12-04T19:28:55;24.50;;;11.90;;
41059;SDS011;26811;53.160;8.202;2023-12-04T19:33:58;27.48;;;12.68;;
41059;SDS011;26811;53.160;8.202;2023-12-04T19:38:59;26.27;;;12.93;;
41059;SDS011;26811;53.160;8.202;2023-12-04T19:43:59;25.33;;;12.43;;
41059;SDS011;26811;53.160;8.202;2023-12-04T19:49:01;25.95;;;13.30;;
41059;SDS011;26811;53.160;8.202;2023-12-04T19:54:01;26.50;;;12.23;;
41059;SDS011;26811;53.160;8.202;2023-12-04T20:04:05;24.40;;;12.40;;
41059;SDS011;26811;53.160;8.202;2023-12-04T20:09:06;24.40;;;11.95;;
41059;SDS011;26811;53.160;8.202;2023-12-04T20:14:09;26.45;;;13.85;;
41059;SDS011;26811;53.160;8.202;2023-12-04T20:19:13;22.17;;;12.40;;
41059;SDS011;26811;53.160;8.202;2023-12-04T20:24:13;20.55;;;12.13;;
41059;SDS011;26811;53.160;8.202;2023-12-04T20:29:14;23.48;;;11.95;;
41059;SDS011;26811;53.160;8.202;2023-12-04T20:34:18;21.30;;;11.13;;
41059;SDS011;26811;53.160;8.202;2023-12-04T20:39:19;23.40;;;11.77;;
41059;SDS011;26811;53.160;8.202;2023-12-04T20:44:19;23.17;;;11.05;;
41059;SDS011;26811;53.160;8.202;2023-12-04T20:49:20;24.67;;;12.00;;
41059;SDS011;26811;53.160;8.202;2023-12-04T20:54:24;23.15;;;11.98;;
41059;SDS011;26811;53.160;8.202;2023-12-04T20:59:24;21.00;;;11.68;;
41059;SDS011;26811;53.160;8.202;2023-12-04T21:04:25;20.80;;;11.55;;
41059;SDS011;26811;53.160;8.202;2023-12-04T21:09:34;19.75;;;11.05;;
41059;SDS011;26811;53.160;8.202;2023-12-04T21:14:35;22.98;;;10.60;;
41059;SDS011;26811;53.160;8.202;2023-12-04T21:19:36;23.27;;;12.02;;
41059;SDS011;26811;53.160;8.202;2023-12-04T21:24:36;22.02;;;11.68;;
41059;SDS011;26811;53.160;8.202;2023-12-04T21:29:37;24.13;;;11.90;;
41059;SDS011;26811;53.160;8.202;2023-12-04T21:34:41;22.40;;;11.57;;
41059;SDS011;26811;53.160;8.202;2023-12-04T21:44:42;22.58;;;11.43;;
41059;SDS011;26811;53.160;8.202;2023-12-04T21:49:42;27.92;;;12.95;;
41059;SDS011;26811;53.160;8.202;2023-12-04T21:54:45;21.87;;;11.80;;
41059;SDS011;26811;53.160;8.202;2023-12-04T21:59:45;26.90;;;12.75;;
41059;SDS011;26811;53.160;8.202;2023-12-04T22:04:46;25.27;;;11.50;;
41059;SDS011;26811;53.160;8.202;2023-12-04T22:09:48;24.60;;;12.95;;
41059;SDS011;26811;53.160;8.202;2023-12-04T22:14:48;26.85;;;13.65;;
41059;SDS011;26811;53.160;8.202;2023-12-04T22:19:49;27.17;;;11.63;;
41059;SDS011;26811;53.160;8.202;2023-12-04T22:24:49;23.73;;;11.63;;
41059;SDS011;26811;53.160;8.202;2023-12-04T22:29:50;22.23;;;11.45;;
41059;SDS011;26811;53.160;8.202;2023-12-04T22:34:50;26.55;;;13.23;;
41059;SDS011;26811;53.160;8.202;2023-12-04T22:39:51;26.23;;;12.40;;
41059;SDS011;26811;53.160;8.202;2023-12-04T22:44:51;28.00;;;13.32;;
41059;SDS011;26811;53.160;8.202;2023-12-04T22:49:52;25.88;;;14.00;;
41059;SDS011;26811;53.160;8.202;2023-12-04T22:54:53;24.73;;;13.63;;
41059;SDS011;26811;53.160;8.202;2023-12-04T22:59:53;24.50;;;13.40;;
41059;SDS011;26811;53.160;8.202;2023-12-04T23:04:54;28.73;;;14.32;;
41059;SDS011;26811;53.160;8.202;2023-12-04T23:09:54;29.73;;;14.40;;
41059;SDS011;26811;53.160;8.202;2023-12-04T23:14:55;29.77;;;14.38;;
41059;SDS011;26811;53.160;8.202;2023-12-04T23:19:55;26.25;;;13.63;;
41059;SDS011;26811;53.160;8.202;2023-12-04T23:24:57;24.05;;;13.02;;
41059;SDS011;26811;53.160;8.202;2023-12-04T23:29:58;27.80;;;14.25;;
41059;SDS011;26811;53.160;8.202;2023-12-04T23:34:58;32.22;;;14.98;;
41059;SDS011;26811;53.160;8.202;2023-12-04T23:39:59;32.13;;;15.60;;
41059;SDS011;26811;53.160;8.202;2023-12-04T23:44:59;31.02;;;15.55;;
41059;SDS011;26811;53.160;8.202;2023-12-04T23:50:00;31.92;;;15.20;;
41059;SDS011;26811;53.160;8.202;2023-12-04T23:55:00;29.58;;;14.57;;
